Time;durP1;ratioP1;P1;durP2;ratioP2;P2;SDS_P1;SDS_P2;PMS_P1;PMS_P2;Temp;Humidity;BMP_temperature;BMP_pressure;BME280_temperature;BME280_humidity;BME280_pressure;Samples;Min_cycle;Max_cycle;Signal;HPM_P1;HPM_P2
2023/10/17 04:33:30;;;;;;;;;3.00;3.00;;;;;17.58;37.32;100907.91;5058183;28;45243;-60
2023/10/17 04:35:59;;;;;;;;;4.00;4.00;;;;;17.60;37.17;100916.81;5059863;28;45457;-59
2023/10/17 04:41:01;;;;;;;;;6.00;6.00;;;;;17.81;36.71;100908.97;5059596;28;46245;-60
2023/10/17 04:46:11;;;;;;;;;4.25;3.00;;;;;17.89;36.74;100894.84;5059790;28;45312;-59
2023/10/17 04:48:40;;;;;;;;;4.00;4.00;;;;;17.89;36.60;100887.56;5059313;28;45598;-61
2023/10/17 04:53:49;;;;;;;;;8.00;4.50;;;;;17.90;36.71;100889.31;5059098;28;45299;-60
2023/10/17 04:56:16;;;;;;;;;4.00;4.00;;;;;17.88;36.74;100888.53;5059612;28;45257;-59
2023/10/17 04:58:49;;;;;;;;;5.00;5.00;;;;;17.89;36.52;100890.28;5059120;28;45402;-59
2023/10/17 05:01:34;;;;;;;;;5.25;5.25;;;;;17.88;36.86;100884.97;5058090;28;45360;-60
2023/10/17 05:04:01;;;;;;;;;8.50;4.75;;;;;17.82;36.60;100880.88;5058714;28;45450;-60
2023/10/17 05:07:07;;;;;;;;;7.50;6.75;;;;;17.84;36.85;100870.78;5057199;28;45433;-60
2023/10/17 06:17:29;;;;;;;;;7.00;7.00;;;;;17.38;37.51;100903.91;5058004;28;45399;-59
2023/10/17 06:19:58;;;;;;;;;7.50;7.50;;;;;17.34;37.80;100906.97;5057712;28;45453;-60
2023/10/17 06:22:51;;;;;;;;;7.25;5.00;;;;;17.34;37.48;100904.25;5057916;28;45422;-59
2023/10/17 06:30:49;;;;;;;;;7.25;6.75;;;;;17.38;37.50;100892.19;5057710;28;45242;-59
2023/10/17 06:33:19;;;;;;;;;8.00;5.25;;;;;17.37;37.24;100894.03;5057485;28;45434;-59
2023/10/17 06:35:57;;;;;;;;;5.50;5.50;;;;;17.40;37.56;100909.22;5057594;28;45425;-60
2023/10/17 06:38:27;;;;;;;;;5.50;5.50;;;;;17.39;37.67;100907.50;5057783;28;46637;-60
2023/10/17 06:41:11;;;;;;;;;7.00;7.00;;;;;17.38;37.44;100908.47;5057496;28;45463;-59
2023/10/17 06:43:38;;;;;;;;;9.00;7.00;;;;;17.38;37.64;100908.47;5057747;28;45292;-60
2023/10/17 06:46:13;;;;;;;;;9.25;6.75;;;;;17.31;37.57;100909.88;5059344;28;45434;-60
2023/10/17 06:48:48;;;;;;;;;7.00;7.00;;;;;17.38;37.46;100905.75;5061301;28;45432;-59
2023/10/17 06:53:47;;;;;;;;;8.50;8.00;;;;;17.76;37.08;100897.59;5061789;28;45327;-59
2023/10/17 06:56:14;;;;;;;;;10.00;7.50;;;;;17.77;37.04;100902.91;5061204;28;46116;-60
2023/10/17 06:58:39;;;;;;;;;7.50;7.50;;;;;17.78;36.88;100906.47;5061179;28;46279;-59
2023/10/17 07:01:05;;;;;;;;;4.75;4.75;;;;;17.77;36.91;100908.34;5061456;28;45265;-59
2023/10/17 07:03:37;;;;;;;;;6.25;6.25;;;;;17.75;36.55;100898.56;5060455;28;45471;-58
2023/10/17 07:06:12;;;;;;;;;5.25;5.25;;;;;17.76;36.58;100903.91;5060439;28;45291;-58
2023/10/17 07:08:38;;;;;;;;;9.00;8.00;;;;;17.80;36.90;100904.50;5061168;28;45429;-59
2023/10/17 07:11:24;;;;;;;;;9.50;6.25;;;;;17.74;37.06;100892.28;5060813;28;45340;-59
2023/10/17 07:13:55;;;;;;;;;10.75;9.00;;;;;17.73;36.86;100903.25;5059866;28;45359;-59
2023/10/17 07:16:25;;;;;;;;;7.00;7.00;;;;;17.71;36.69;100899.75;5059673;28;45380;-60
2023/10/17 07:18:55;;;;;;;;;6.75;6.75;;;;;17.72;37.08;100901.50;5059757;28;45930;-59
2023/10/17 07:21:24;;;;;;;;;8.25;7.25;;;;;17.78;37.04;100901.91;5059133;28;45232;-59
2023/10/17 07:23:53;;;;;;;;;5.00;5.00;;;;;17.76;36.69;100903.91;5060380;28;45355;-59
2023/10/17 07:28:54;;;;;;;;;11.25;9.00;;;;;17.84;36.93;100902.47;5060089;28;45394;-59
2023/10/17 07:31:20;;;;;;;;;8.50;7.50;;;;;17.81;36.95;100895.41;5060517;28;45489;-59
2023/10/17 07:33:47;;;;;;;;;8.00;6.00;;;;;17.86;36.89;100897.78;5059497;28;45280;-59
2023/10/17 07:36:15;;;;;;;;;5.00;5.00;;;;;17.89;36.73;100902.97;5060552;28;45307;-60
2023/10/17 07:38:46;;;;;;;;;10.00;9.75;;;;;17.82;36.67;100893.56;5060648;28;45523;-59
2023/10/17 07:41:32;;;;;;;;;9.00;8.00;;;;;17.66;36.63;100880.25;5060582;28;45486;-60
2023/10/17 07:44:08;;;;;;;;;9.00;6.25;;;;;17.77;36.67;100897.50;5060619;28;45339;-59
2023/10/17 07:46:34;;;;;;;;;5.25;5.00;;;;;17.79;36.70;100900.06;5060583;28;45301;-60
2023/10/17 07:49:05;;;;;;;;;9.00;7.00;;;;;17.85;36.67;100898.78;5060133;28;47010;-58
2023/10/17 07:51:32;;;;;;;;;8.50;8.00;;;;;17.79;36.97;100905.50;5060301;28;45410;-59
2023/10/17 07:53:58;;;;;;;;;9.75;8.00;;;;;17.78;36.66;100904.63;5059630;28;45343;-58
2023/10/17 07:56:25;;;;;;;;;8.50;8.50;;;;;17.87;36.77;100903.09;5059885;28;45996;-59
2023/10/17 07:58:57;;;;;;;;;10.25;9.00;;;;;17.86;36.96;100903.22;5059169;28;45783;-58
2023/10/17 08:01:32;;;;;;;;;8.00;8.00;;;;;17.88;37.15;100893.97;5060341;28;45540;-59
2023/10/17 08:04:13;;;;;;;;;6.25;5.25;;;;;17.98;36.68;100902.28;5060292;28;45347;-60
2023/10/17 08:06:38;;;;;;;;;9.75;9.00;;;;;18.03;36.55;100897.41;5059106;28;45483;-59
2023/10/17 08:09:16;;;;;;;;;8.00;5.00;;;;;18.03;36.69;100895.53;5060155;28;45308;-59
2023/10/17 08:11:42;;;;;;;;;7.50;7.50;;;;;18.05;36.67;100906.28;5059935;28;45316;-58
2023/10/17 08:14:11;;;;;;;;;7.75;7.75;;;;;18.03;36.50;100900.97;5059242;28;45432;-59
2023/10/17 08:16:40;;;;;;;;;8.25;8.25;;;;;18.11;36.73;100905.84;5059979;28;45347;-58
2023/10/17 08:19:15;;;;;;;;;8.75;8.00;;;;;18.16;36.73;100911.78;5059816;28;46369;-58
2023/10/17 08:22:09;;;;;;;;;8.25;5.00;;;;;18.23;36.59;100909.47;5059287;28;45252;-59
2023/10/17 08:24:40;;;;;;;;;6.25;4.00;;;;;18.14;36.70;100905.59;5059950;28;45158;-59
2023/10/17 08:27:41;;;;;;;;;5.25;5.25;;;;;18.25;36.51;100905.66;5058936;28;45459;-60
2023/10/17 08:30:23;;;;;;;;;15.00;8.00;;;;;18.32;36.86;100906.94;5059636;28;45378;-60
2023/10/17 08:32:55;;;;;;;;;9.25;9.25;;;;;18.39;36.59;100910.03;5059832;28;45411;-59
2023/10/17 08:35:26;;;;;;;;;9.00;8.00;;;;;18.45;36.25;100909.59;5059967;28;45288;-59
2023/10/17 08:37:52;;;;;;;;;10.75;8.00;;;;;18.48;37.03;100901.19;5059674;28;45505;-59
2023/10/17 08:40:29;;;;;;;;;9.00;9.00;;;;;18.55;36.30;100897.03;5058845;28;45466;-59
2023/10/17 08:42:56;;;;;;;;;12.00;12.00;;;;;18.62;36.27;100898.34;5059454;28;45535;-59
2023/10/17 08:45:26;;;;;;;;;11.00;10.50;;;;;18.65;36.27;100886.38;5059058;28;45328;-59
2023/10/17 08:47:59;;;;;;;;;11.25;9.25;;;;;18.66;36.46;100880.81;5059723;28;45177;-60
2023/10/17 08:50:24;;;;;;;;;12.75;11.00;;;;;18.70;36.12;100890.47;5059290;28;46306;-60
2023/10/17 08:52:51;;;;;;;;;10.50;9.25;;;;;18.70;36.23;100886.91;5059258;28;45483;-58
2023/10/17 08:55:17;;;;;;;;;8.50;8.50;;;;;18.78;36.51;100882.59;5059717;28;45307;-59
2023/10/17 08:57:42;;;;;;;;;8.50;8.50;;;;;18.89;36.15;100887.16;5059233;28;45528;-59
2023/10/17 09:02:35;;;;;;;;;11.25;10.25;;;;;19.04;36.17;100879.69;5059394;28;45324;-60
2023/10/17 09:05:18;;;;;;;;;11.75;11.00;;;;;19.12;36.11;100885.38;5058415;28;45526;-59
2023/10/17 09:07:48;;;;;;;;;12.50;11.25;;;;;19.16;35.82;100885.00;5057666;28;45468;-59
2023/10/17 09:10:19;;;;;;;;;13.25;10.75;;;;;19.22;35.77;100880.94;5058892;28;47220;-58
2023/10/17 09:13:14;;;;;;;;;11.00;9.00;;;;;19.27;35.62;100876.00;5059042;28;45458;-58
2023/10/17 09:15:39;;;;;;;;;14.00;11.25;;;;;19.24;35.75;100863.50;5059435;28;45332;-59
2023/10/17 09:18:07;;;;;;;;;12.00;12.00;;;;;19.36;35.89;100874.41;5058300;28;45348;-60
2023/10/17 09:20:36;;;;;;;;;10.25;10.25;;;;;19.46;35.73;100872.66;5059097;28;45544;-60
2023/10/17 09:23:02;;;;;;;;;11.50;11.50;;;;;19.52;35.69;100870.34;5058926;28;45362;-59
2023/10/17 09:25:30;;;;;;;;;11.75;11.75;;;;;19.57;35.59;100853.63;5058450;28;45246;-59
2023/10/17 09:27:56;;;;;;;;;9.25;9.25;;;;;19.70;35.12;100872.56;5057900;28;45380;-60
2023/10/17 09:30:26;;;;;;;;;12.00;12.00;;;;;19.77;35.07;100862.91;5058906;28;46447;-59
2023/10/17 09:32:52;;;;;;;;;11.75;10.75;;;;;19.78;34.99;100870.94;5058826;28;45495;-59
2023/10/17 09:35:18;;;;;;;;;12.00;10.75;;;;;19.81;35.35;100872.56;5058839;28;45265;-60
2023/10/17 09:37:52;;;;;;;;;12.00;12.00;;;;;19.89;35.05;100872.78;5058770;28;45345;-60
2023/10/17 09:40:33;;;;;;;;;11.50;11.00;;;;;19.86;35.02;100859.41;5058518;28;45185;-58
2023/10/17 09:43:01;;;;;;;;;13.00;11.50;;;;;19.97;35.20;100873.88;5058476;28;45355;-59
2023/10/17 09:45:33;;;;;;;;;13.25;13.25;;;;;20.05;35.03;100870.50;5058779;28;45254;-58
2023/10/17 09:48:04;;;;;;;;;16.00;14.50;;;;;20.14;34.87;100864.31;5058619;28;45268;-60
2023/10/17 09:50:33;;;;;;;;;11.75;10.50;;;;;20.21;34.87;100862.78;5057964;28;45503;-59
2023/10/17 09:53:12;;;;;;;;;13.25;11.75;;;;;20.27;34.77;100872.28;5058301;28;45445;-59
2023/10/17 09:55:43;;;;;;;;;12.25;11.25;;;;;20.32;34.80;100856.44;5058710;28;45208;-59
2023/10/17 09:58:10;;;;;;;;;11.00;8.75;;;;;20.34;34.83;100851.75;5058236;28;45688;-58
2023/10/17 10:00:46;;;;;;;;;12.25;12.25;;;;;20.39;34.67;100855.81;5058602;28;46406;-59
2023/10/17 10:03:12;;;;;;;;;13.25;12.00;;;;;20.39;34.68;100849.50;5058472;28;45303;-59
2023/10/17 10:05:38;;;;;;;;;17.00;15.50;;;;;20.43;35.00;100848.22;5058553;28;45375;-59
2023/10/17 10:08:28;;;;;;;;;13.75;13.25;;;;;20.55;34.87;100852.66;5058365;28;46052;-59
2023/10/17 10:10:53;;;;;;;;;15.50;15.00;;;;;20.59;34.47;100851.38;5058486;28;47357;-58
2023/10/17 10:13:20;;;;;;;;;12.50;12.50;;;;;20.62;34.47;100855.69;5058333;28;45331;-59
2023/10/17 10:16:01;;;;;;;;;15.25;14.75;;;;;20.69;34.46;100849.59;5058807;28;45376;-60
2023/10/17 10:18:35;;;;;;;;;16.25;15.00;;;;;20.75;34.35;100846.34;5058514;28;45261;-59
2023/10/17 10:21:04;;;;;;;;;14.00;14.00;;;;;20.84;34.07;100839.22;5061200;28;46519;-60
2023/10/17 10:23:39;;;;;;;;;15.25;15.25;;;;;20.99;34.17;100837.91;5062016;28;45323;-59
2023/10/17 10:26:11;;;;;;;;;16.00;16.00;;;;;21.08;34.01;100844.41;5061820;28;45344;-60
2023/10/17 10:28:56;;;;;;;;;14.75;14.00;;;;;21.21;33.85;100831.44;5061819;28;45335;-59
2023/10/17 10:31:21;;;;;;;;;12.75;12.75;;;;;21.31;34.11;100832.34;5061488;28;46084;-59
2023/10/17 10:33:48;;;;;;;;;13.00;10.50;;;;;21.44;34.11;100821.19;5061710;28;45324;-60
2023/10/17 10:36:16;;;;;;;;;15.00;13.00;;;;;21.56;33.63;100824.66;5062003;28;45335;-59
2023/10/17 10:38:41;;;;;;;;;14.50;13.75;;;;;21.65;33.48;100821.09;5060553;28;45497;-60
2023/10/17 10:41:07;;;;;;;;;12.00;12.00;;;;;21.80;32.93;100806.94;5061619;28;45303;-59
2023/10/17 10:43:33;;;;;;;;;16.75;14.50;;;;;21.83;32.94;100808.50;5060651;28;45419;-60
2023/10/17 10:46:01;;;;;;;;;11.75;10.00;;;;;21.96;33.00;100808.22;5062041;28;45359;-58
2023/10/17 10:48:26;;;;;;;;;13.50;11.75;;;;;22.03;33.10;100802.09;5061437;28;46108;-59
2023/10/17 10:50:55;;;;;;;;;13.50;12.50;;;;;22.19;32.79;100809.75;5061664;28;45374;-59
2023/10/17 10:53:32;;;;;;;;;13.00;13.00;;;;;22.32;32.53;100823.09;5056947;28;45322;-60
2023/10/17 10:56:11;;;;;;;;;16.75;14.75;;;;;22.41;32.23;100795.78;5061019;28;45267;-59
2023/10/17 10:58:56;;;;;;;;;13.50;12.00;;;;;22.93;31.82;100799.91;5061253;28;45382;-60
2023/10/17 11:01:23;;;;;;;;;13.25;13.25;;;;;23.47;31.06;100802.84;5061508;28;45999;-59
2023/10/17 11:03:50;;;;;;;;;12.00;12.00;;;;;24.11;30.50;100800.88;5061440;28;45372;-59
2023/10/17 11:06:27;;;;;;;;;13.75;13.75;;;;;24.75;29.85;100799.72;5061406;28;45271;-59
2023/10/17 11:08:54;;;;;;;;;12.75;12.75;;;;;25.34;28.79;100799.97;5061380;28;45387;-59
2023/10/17 11:11:19;;;;;;;;;14.50;14.50;;;;;25.83;28.22;100801.03;5060907;28;46497;-58
2023/10/17 11:13:49;;;;;;;;;14.75;13.75;;;;;26.52;27.24;100789.66;5060383;28;45406;-59
2023/10/17 11:16:19;;;;;;;;;17.75;15.25;;;;;27.35;26.52;100790.19;5061433;28;45354;-58
2023/10/17 11:18:45;;;;;;;;;18.50;15.50;;;;;28.00;25.82;100792.63;5060351;28;45525;-60
2023/10/17 11:21:12;;;;;;;;;15.75;15.75;;;;;28.74;24.90;100790.22;5060884;28;46221;-59
2023/10/17 11:23:46;;;;;;;;;14.00;13.75;;;;;29.69;24.08;100781.03;5042917;28;45377;-59
2023/10/17 11:26:13;;;;;;;;;13.00;13.00;;;;;30.67;22.67;100772.13;5060915;28;45403;-60
2023/10/17 11:28:42;;;;;;;;;4.50;2.75;;;;;31.44;22.23;100774.78;5061008;28;45364;-60
2023/10/17 11:31:13;;;;;;;;;14.25;11.75;;;;;31.85;21.31;100766.47;5060026;28;45941;-61
2023/10/17 11:33:45;;;;;;;;;11.75;11.75;;;;;32.20;21.19;100758.91;5060975;28;45278;-58
2023/10/17 11:36:16;;;;;;;;;14.00;14.00;;;;;32.68;20.52;100759.56;5061018;28;45418;-59
2023/10/17 11:38:43;;;;;;;;;14.25;14.25;;;;;33.18;20.75;100736.84;5060754;28;45396;-60
2023/10/17 11:41:08;;;;;;;;;15.00;15.00;;;;;33.58;19.97;100743.19;5060461;28;47217;-60
2023/10/17 11:43:50;;;;;;;;;13.50;11.50;;;;;33.92;19.85;100740.03;5060453;28;45621;-60
2023/10/17 11:46:27;;;;;;;;;13.75;10.00;;;;;34.46;19.10;100735.81;5061083;28;45545;-59
2023/10/17 11:48:54;;;;;;;;;13.75;13.75;;;;;34.82;18.38;100735.09;5060503;28;45324;-59
2023/10/17 11:51:28;;;;;;;;;11.00;11.00;;;;;35.11;18.45;100728.81;5060256;28;46060;-61
2023/10/17 11:54:07;;;;;;;;;11.50;11.50;;;;;35.32;18.26;100727.50;5029112;28;45388;-59
2023/10/17 11:56:32;;;;;;;;;16.25;12.75;;;;;35.55;18.77;100719.31;5060364;28;45386;-59
2023/10/17 11:59:01;;;;;;;;;12.00;12.00;;;;;35.73;17.93;100718.41;5060340;28;45339;-58
2023/10/17 12:01:26;;;;;;;;;14.25;13.50;;;;;35.62;17.55;100713.63;5060355;28;46253;-59
2023/10/17 12:03:53;;;;;;;;;14.00;13.25;;;;;35.49;18.03;100716.56;5059629;28;45296;-59
2023/10/17 12:06:21;;;;;;;;;12.25;12.25;;;;;35.42;18.29;100715.81;5060527;28;45839;-59
2023/10/17 12:08:47;;;;;;;;;13.75;11.75;;;;;35.52;18.88;100703.03;5060339;28;45557;-60
2023/10/17 12:11:12;;;;;;;;;12.00;10.00;;;;;35.77;17.73;100700.13;5059960;28;46016;-58
2023/10/17 12:13:37;;;;;;;;;9.75;9.75;;;;;35.88;17.84;100690.97;5060284;28;45272;-58
2023/10/17 12:16:08;;;;;;;;;10.00;10.00;;;;;36.02;17.66;100691.59;5041909;28;52726;-61
2023/10/17 12:18:37;;;;;;;;;11.50;11.00;;;;;36.22;17.58;100686.59;5059625;28;45549;-59
2023/10/17 12:21:04;;;;;;;;;13.00;13.00;;;;;36.23;17.95;100696.69;5059817;28;46999;-59
2023/10/17 12:23:30;;;;;;;;;11.75;9.50;;;;;36.27;17.67;100683.94;5059920;28;45304;-58
2023/10/17 12:26:01;;;;;;;;;8.50;8.50;;;;;36.20;17.72;100685.97;5041881;28;45214;-59
2023/10/17 12:28:27;;;;;;;;;11.50;10.25;;;;;36.10;17.85;100685.69;5059831;28;45443;-59
2023/10/17 12:30:53;;;;;;;;;7.75;7.75;;;;;35.91;17.71;100678.47;5059964;28;45465;-59
2023/10/17 12:33:22;;;;;;;;;13.75;9.75;;;;;35.62;18.20;100669.84;5059912;28;45321;-59
2023/10/17 12:35:48;;;;;;;;;11.50;9.50;;;;;35.46;18.50;100658.50;5059911;28;45362;-59
2023/10/17 12:38:24;;;;;;;;;9.00;9.00;;;;;35.14;18.51;100655.00;5059936;28;45469;-59
2023/10/17 12:40:49;;;;;;;;;8.50;7.25;;;;;34.98;19.11;100675.13;5059896;28;47041;-60
2023/10/17 12:43:16;;;;;;;;;7.00;7.00;;;;;34.59;19.43;100663.31;5058759;28;45315;-58
2023/10/17 12:45:41;;;;;;;;;7.00;7.00;;;;;34.33;19.35;100672.78;5059688;28;45421;-59
2023/10/17 12:48:11;;;;;;;;;7.00;7.00;;;;;34.01;19.83;100648.81;5058883;28;45308;-59
2023/10/17 12:50:43;;;;;;;;;8.25;8.25;;;;;33.74;20.05;100645.38;5059326;28;45515;-60
2023/10/17 12:53:12;;;;;;;;;6.75;6.00;;;;;33.24;20.51;100645.19;5059296;28;45430;-59
2023/10/17 12:55:38;;;;;;;;;7.75;7.75;;;;;32.79;21.31;100641.47;5059760;28;45346;-59
2023/10/17 12:58:06;;;;;;;;;10.00;8.00;;;;;32.31;21.46;100643.66;5058562;28;45339;-60
2023/10/17 13:00:33;;;;;;;;;5.75;5.75;;;;;31.80;22.07;100647.03;5059491;28;47175;-59
2023/10/17 13:02:59;;;;;;;;;5.50;5.50;;;;;31.49;22.54;100655.84;5059457;28;45402;-59
2023/10/17 13:05:26;;;;;;;;;8.00;7.00;;;;;31.09;23.17;100646.56;5059507;28;45414;-58
2023/10/17 13:07:52;;;;;;;;;7.00;7.00;;;;;30.70;23.38;100644.41;5059155;28;45413;-60
2023/10/17 13:10:19;;;;;;;;;10.75;7.50;;;;;30.36;24.21;100642.44;5059312;28;45889;-61
2023/10/17 13:12:46;;;;;;;;;6.25;6.25;;;;;30.07;24.54;100632.41;5059148;28;45655;-60
2023/10/17 13:15:15;;;;;;;;;9.25;7.25;;;;;30.03;24.49;100635.75;5058637;28;45398;-59
2023/10/17 13:17:41;;;;;;;;;9.25;6.75;;;;;29.94;24.86;100631.47;5059511;28;45297;-60
2023/10/17 13:20:07;;;;;;;;;9.00;9.00;;;;;29.91;24.52;100626.28;5059428;28;45225;-61
2023/10/17 13:22:37;;;;;;;;;8.75;8.00;;;;;29.89;25.09;100618.19;5058313;28;45281;-60
2023/10/17 13:25:07;;;;;;;;;8.50;8.50;;;;;29.94;25.04;100625.94;5058685;28;45366;-59
2023/10/17 13:27:33;;;;;;;;;6.75;6.75;;;;;30.04;25.21;100626.41;5058197;28;45479;-60
2023/10/17 13:29:58;;;;;;;;;5.50;5.50;;;;;30.28;24.49;100614.94;5058967;28;46877;-60
2023/10/17 13:32:23;;;;;;;;;8.50;7.00;;;;;30.45;24.41;100604.41;5040671;28;57626;-60
2023/10/17 13:34:51;;;;;;;;;8.25;7.25;;;;;30.80;24.22;100599.72;5059583;28;45483;-60
2023/10/17 13:37:16;;;;;;;;;7.25;6.00;;;;;31.09;24.46;100613.31;5058985;28;46166;-60
2023/10/17 13:39:42;;;;;;;;;6.75;6.75;;;;;31.25;23.82;100608.47;5059088;28;46161;-59
2023/10/17 13:42:09;;;;;;;;;8.50;8.50;;;;;31.43;23.59;100601.28;5058562;28;46637;-59
2023/10/17 13:44:35;;;;;;;;;8.00;8.00;;;;;31.72;23.24;100607.56;5058336;28;45318;-59
2023/10/17 13:47:00;;;;;;;;;6.00;5.75;;;;;31.65;23.46;100610.31;5041010;28;46327;-59
2023/10/17 13:49:27;;;;;;;;;7.00;4.25;;;;;31.76;23.40;100603.28;5058864;28;47114;-59
2023/10/17 13:51:54;;;;;;;;;5.25;5.25;;;;;31.90;23.02;100600.31;5058276;28;45378;-59
2023/10/17 13:54:19;;;;;;;;;8.25;8.25;;;;;31.97;23.02;100602.25;5058444;28;45395;-58
2023/10/17 13:56:45;;;;;;;;;7.00;7.00;;;;;32.01;23.44;100596.03;5058614;28;45327;-60
2023/10/17 13:59:10;;;;;;;;;7.75;6.25;;;;;32.16;23.28;100593.94;5058708;28;46022;-59
2023/10/17 14:01:42;;;;;;;;;5.75;5.75;;;;;32.30;23.22;100584.53;5058005;28;45335;-59
2023/10/17 14:04:11;;;;;;;;;7.00;7.00;;;;;32.37;22.83;100594.78;5058920;28;45438;-59
2023/10/17 14:06:42;;;;;;;;;5.75;5.75;;;;;32.33;23.14;100592.41;5057624;28;45460;-59
2023/10/17 14:09:17;;;;;;;;;9.00;5.00;;;;;32.25;23.21;100578.78;5058730;28;45234;-60
2023/10/17 14:11:43;;;;;;;;;6.75;5.00;;;;;32.15;23.19;100563.63;5058365;28;45251;-59
2023/10/17 14:14:10;;;;;;;;;6.50;6.50;;;;;32.08;23.59;100563.59;5058669;28;45363;-59
2023/10/17 14:16:40;;;;;;;;;7.75;6.75;;;;;31.82;23.88;100567.25;5057816;28;45906;-60
2023/10/17 14:19:13;;;;;;;;;8.50;7.00;;;;;31.52;23.89;100566.78;5058589;28;45328;-61
2023/10/17 14:21:41;;;;;;;;;7.50;7.50;;;;;31.23;24.08;100566.28;5057616;28;45374;-59
2023/10/17 14:26:51;;;;;;;;;5.25;5.25;;;;;30.60;25.06;100560.03;5058384;28;45177;-61
2023/10/17 14:29:16;;;;;;;;;6.75;5.25;;;;;30.42;25.32;100553.09;5057602;28;62664;-61
2023/10/17 14:31:41;;;;;;;;;5.25;5.25;;;;;30.16;25.67;100543.78;5058402;28;50245;-59
2023/10/17 14:34:09;;;;;;;;;7.25;7.25;;;;;29.99;25.54;100548.75;5058616;28;45309;-59
2023/10/17 14:36:36;;;;;;;;;7.00;7.00;;;;;29.67;26.74;100537.22;5057724;28;45323;-59
2023/10/17 14:39:02;;;;;;;;;6.75;6.75;;;;;29.58;26.63;100540.31;5057478;28;46513;-58
2023/10/17 14:41:28;;;;;;;;;5.50;5.50;;;;;29.41;26.94;100548.03;5040048;28;45392;-60
2023/10/17 14:43:54;;;;;;;;;7.50;7.00;;;;;29.13;26.96;100536.00;5058376;28;45516;-59
2023/10/17 14:46:20;;;;;;;;;6.50;5.50;;;;;29.04;27.66;100548.19;5057565;28;45232;-59
2023/10/17 14:48:46;;;;;;;;;5.25;5.25;;;;;28.89;27.69;100540.84;5057925;28;46124;-59
2023/10/17 14:51:12;;;;;;;;;6.00;6.00;;;;;28.63;27.98;100543.22;5058188;28;45252;-59
2023/10/17 14:53:46;;;;;;;;;5.50;5.50;;;;;28.49;27.73;100542.19;5039340;28;45300;-60
2023/10/17 14:56:15;;;;;;;;;5.00;5.00;;;;;28.45;28.19;100537.25;5057937;28;45331;-59
2023/10/17 14:58:49;;;;;;;;;5.50;5.50;;;;;28.36;28.60;100536.47;5057838;28;46142;-59
2023/10/17 15:01:16;;;;;;;;;8.50;6.25;;;;;28.16;28.77;100543.59;5057855;28;45432;-60
2023/10/17 15:03:42;;;;;;;;;8.00;6.25;;;;;27.96;28.84;100531.41;5058165;28;45470;-58
2023/10/17 15:06:09;;;;;;;;;8.25;6.00;;;;;27.74;29.07;100522.13;5039819;28;45901;-60
2023/10/17 15:08:35;;;;;;;;;8.00;7.50;;;;;27.71;29.61;100531.66;5060733;28;45364;-60
2023/10/17 15:11:05;;;;;;;;;7.25;6.00;;;;;27.56;28.93;100530.72;5061121;28;45297;-59
2023/10/17 15:13:32;;;;;;;;;8.50;6.00;;;;;27.44;29.52;100529.44;5061549;28;45484;-60
2023/10/17 15:15:57;;;;;;;;;7.00;6.50;;;;;27.45;29.39;100533.91;5060297;28;45488;-59
2023/10/17 15:18:22;;;;;;;;;5.50;5.50;;;;;27.34;29.87;100531.56;5060544;28;58656;-60
2023/10/17 15:20:48;;;;;;;;;7.00;7.00;;;;;27.26;29.72;100532.50;5060516;28;45360;-59
2023/10/17 15:23:14;;;;;;;;;8.00;6.25;;;;;27.21;30.46;100526.69;5061305;28;48996;-58
2023/10/17 15:25:39;;;;;;;;;9.50;8.00;;;;;27.01;30.09;100507.03;5042923;28;45615;-59
2023/10/17 15:28:05;;;;;;;;;7.00;7.00;;;;;27.07;30.27;100517.31;5059797;28;45379;-60
2023/10/17 15:30:32;;;;;;;;;8.25;6.00;;;;;26.99;30.46;100514.63;5042964;28;45336;-59
2023/10/17 15:32:58;;;;;;;;;8.00;8.00;;;;;26.93;30.21;100509.84;5061097;28;45473;-59
2023/10/17 15:35:24;;;;;;;;;7.25;5.75;;;;;26.97;30.65;100511.19;5060759;28;45226;-59
2023/10/17 15:37:50;;;;;;;;;8.50;8.50;;;;;26.98;30.68;100506.53;5060661;28;47103;-59
2023/10/17 15:40:19;;;;;;;;;13.50;7.00;;;;;26.93;31.03;100511.75;5059929;28;45356;-60
2023/10/17 15:42:45;;;;;;;;;6.75;6.75;;;;;26.80;31.19;100511.44;5059683;28;45228;-58
2023/10/17 15:45:13;;;;;;;;;7.50;7.50;;;;;26.65;31.67;100509.44;5060398;28;45384;-59
2023/10/17 15:47:43;;;;;;;;;7.00;6.50;;;;;26.65;31.29;100501.22;5060059;28;45359;-59
2023/10/17 15:50:12;;;;;;;;;7.00;7.00;;;;;26.51;31.82;100495.63;5070755;28;45474;-60
2023/10/17 15:52:38;;;;;;;;;8.00;8.00;;;;;26.45;31.48;100502.69;5059773;28;45338;-60
2023/10/17 15:55:07;;;;;;;;;5.75;5.75;;;;;26.41;31.60;100500.47;5060195;28;45201;-61
2023/10/17 15:57:32;;;;;;;;;5.75;5.00;;;;;26.37;31.85;100497.22;5060335;28;45331;-60
2023/10/17 15:59:58;;;;;;;;;7.75;7.75;;;;;26.34;32.50;100484.69;5060307;28;45315;-59
2023/10/17 16:02:23;;;;;;;;;8.00;8.00;;;;;26.41;32.03;100497.72;5060668;28;45336;-58
2023/10/17 16:04:48;;;;;;;;;13.25;10.00;;;;;26.34;32.40;100487.44;5060007;28;45268;-58
2023/10/17 16:07:14;;;;;;;;;7.00;7.00;;;;;26.39;32.31;100489.66;5060468;28;47976;-60
2023/10/17 16:09:41;;;;;;;;;6.50;6.25;;;;;26.34;32.14;100486.59;5060127;28;45329;-59
2023/10/17 16:12:08;;;;;;;;;7.50;7.25;;;;;26.32;31.75;100496.91;5059772;28;45246;-59
2023/10/17 16:14:33;;;;;;;;;9.75;7.50;;;;;26.30;32.27;100502.56;5060033;28;45327;-59
2023/10/17 16:16:58;;;;;;;;;7.50;7.50;;;;;26.28;32.35;100504.66;5057899;28;45345;-59
2023/10/17 16:19:24;;;;;;;;;8.50;8.50;;;;;26.19;32.74;100491.94;5059762;28;45243;-59
2023/10/17 16:21:49;;;;;;;;;9.00;7.00;;;;;26.12;32.62;100473.56;5059788;28;45371;-59
2023/10/17 16:24:16;;;;;;;;;9.25;7.25;;;;;26.04;32.54;100474.47;5060234;28;45424;-61
2023/10/17 16:26:41;;;;;;;;;9.75;7.25;;;;;26.15;32.40;100496.06;5059289;28;45378;-59
2023/10/17 16:29:07;;;;;;;;;5.75;5.75;;;;;26.13;32.88;100492.63;5058967;28;45379;-60
2023/10/17 16:31:33;;;;;;;;;6.00;6.00;;;;;26.10;32.65;100503.13;5059585;28;45249;-59
2023/10/17 16:33:58;;;;;;;;;7.25;7.25;;;;;26.04;33.13;100498.31;5059099;28;45552;-59
2023/10/17 16:36:24;;;;;;;;;8.25;7.00;;;;;25.91;32.84;100507.13;5060179;28;45383;-59
2023/10/17 16:38:50;;;;;;;;;9.00;7.25;;;;;25.88;33.29;100502.84;5059748;28;45392;-59
2023/10/17 16:41:16;;;;;;;;;7.00;7.00;;;;;25.86;33.06;100504.88;5058810;28;45227;-58
2023/10/17 16:43:41;;;;;;;;;6.00;6.00;;;;;25.86;33.15;100507.63;5058899;28;59407;-57
2023/10/17 16:46:08;;;;;;;;;8.75;8.75;;;;;25.80;33.24;100499.25;5059192;28;55667;-57
2023/10/17 16:48:34;;;;;;;;;8.25;8.25;;;;;25.79;33.16;100495.63;5059388;28;45296;-58
2023/10/17 16:50:59;;;;;;;;;7.50;7.50;;;;;25.71;33.56;100500.28;5059643;28;45491;-57
2023/10/17 16:53:25;;;;;;;;;7.00;7.00;;;;;25.70;33.15;100491.19;5059323;28;45542;-58
2023/10/17 16:55:51;;;;;;;;;4.75;3.50;;;;;25.64;33.63;100502.88;5059056;28;47056;-56
2023/10/17 16:58:16;;;;;;;;;8.75;7.75;;;;;25.64;33.57;100500.13;5059527;28;45344;-57
2023/10/17 17:00:43;;;;;;;;;9.00;7.50;;;;;25.68;33.84;100500.66;5059997;28;45355;-57
2023/10/17 17:03:08;;;;;;;;;9.75;8.50;;;;;25.66;33.80;100505.44;5059513;28;45516;-58
2023/10/17 17:05:37;;;;;;;;;13.00;9.00;;;;;25.55;33.70;100499.25;5059284;28;46055;-58
2023/10/17 17:08:03;;;;;;;;;8.50;8.50;;;;;25.55;33.90;100498.38;5059399;28;45295;-56
2023/10/17 17:10:28;;;;;;;;;7.00;7.00;;;;;25.56;33.87;100503.72;5059428;28;45334;-58
2023/10/17 17:12:53;;;;;;;;;8.75;8.00;;;;;25.52;34.08;100507.00;5059102;28;45301;-57
2023/10/17 17:15:20;;;;;;;;;7.25;7.25;;;;;25.54;33.95;100504.91;5059310;28;46233;-57
2023/10/17 17:17:46;;;;;;;;;11.75;9.25;;;;;25.49;34.03;100497.19;5059170;28;45397;-57
2023/10/17 17:20:13;;;;;;;;;6.75;6.75;;;;;25.54;34.12;100511.25;5059398;28;45268;-56
2023/10/17 17:22:42;;;;;;;;;8.00;8.00;;;;;25.39;34.05;100507.50;5058001;28;45358;-56
2023/10/17 17:25:13;;;;;;;;;8.50;7.25;;;;;25.32;34.60;100520.19;5058980;28;46167;-57
2023/10/17 17:27:38;;;;;;;;;10.75;9.25;;;;;25.36;34.03;100518.81;5057642;28;45357;-56
2023/10/17 17:30:07;;;;;;;;;11.00;10.75;;;;;25.38;34.22;100514.00;5058662;28;45335;-64
2023/10/17 17:32:35;;;;;;;;;12.00;10.50;;;;;25.33;34.55;100513.69;5058893;28;45288;-62